createdAt,value
2023-02-19T00:00:24.128Z,6.35
2023-02-19T00:02:25.731Z,5.45
2023-02-19T00:04:27.437Z,6.20
2023-02-19T00:06:30.691Z,5.25
2023-02-19T00:08:33.393Z,4.60
2023-02-19T00:10:35.076Z,4.90
2023-02-19T00:12:36.638Z,4.00
2023-02-19T00:14:38.116Z,4.90
2023-02-19T00:16:40.114Z,4.75
2023-02-19T00:18:42.703Z,3.78
2023-02-19T00:20:44.498Z,4.68
2023-02-19T00:22:45.930Z,4.80
2023-02-19T00:24:49.333Z,4.43
2023-02-19T00:26:50.950Z,4.90
2023-02-19T00:28:55.463Z,4.10
2023-02-19T00:30:57.348Z,5.03
2023-02-19T00:33:01.454Z,4.65
2023-02-19T00:35:04.332Z,5.63
2023-02-19T00:37:11.708Z,4.35
2023-02-19T00:39:18.164Z,4.13
2023-02-19T00:41:21.985Z,3.97
2023-02-19T00:43:26.910Z,4.90
2023-02-19T00:45:28.576Z,3.50
2023-02-19T00:47:35.130Z,3.13
2023-02-19T00:49:36.699Z,3.10
2023-02-19T00:51:51.639Z,4.45
2023-02-19T00:53:53.597Z,3.90
2023-02-19T00:55:55.317Z,4.55
2023-02-19T00:57:56.840Z,2.80
2023-02-19T00:59:58.564Z,3.75
2023-02-19T01:02:00.232Z,5.30
2023-02-19T01:04:01.998Z,8.18
2023-02-19T01:06:05.630Z,7.72
2023-02-19T01:08:07.403Z,6.50
2023-02-19T01:10:09.412Z,6.30
2023-02-19T01:12:10.981Z,4.90
2023-02-19T01:14:12.497Z,3.92
2023-02-19T01:16:18.841Z,3.45
2023-02-19T01:18:20.749Z,3.78
2023-02-19T01:20:22.444Z,4.13
2023-02-19T01:22:24.163Z,2.78
2023-02-19T01:24:27.405Z,3.15
2023-02-19T01:26:36.582Z,3.08
2023-02-19T01:28:38.526Z,3.72
2023-02-19T01:30:40.413Z,3.55
2023-02-19T01:32:41.959Z,2.65
2023-02-19T01:34:43.539Z,2.55
2023-02-19T01:36:45.091Z,4.15
2023-02-19T01:38:46.917Z,2.97
2023-02-19T01:41:16.458Z,3.45
2023-02-19T01:43:18.129Z,3.10
2023-02-19T01:45:27.757Z,2.63
2023-02-19T01:47:29.469Z,2.42
2023-02-19T01:49:37.954Z,2.90
2023-02-19T01:52:01.593Z,2.67
2023-02-19T01:54:07.655Z,3.28
2023-02-19T01:56:13.012Z,2.95
2023-02-19T01:58:16.429Z,2.95
2023-02-19T02:00:18.401Z,2.53
2023-02-19T02:02:20.146Z,3.28
2023-02-19T02:04:21.821Z,3.20
2023-02-19T02:06:31.726Z,2.40
2023-02-19T02:08:52.832Z,2.55
2023-02-19T02:10:57.439Z,2.65
2023-02-19T02:12:59.200Z,2.40
2023-02-19T02:15:01.377Z,3.38
2023-02-19T02:17:30.500Z,2.60
2023-02-19T02:20:12.969Z,2.78
2023-02-19T02:22:36.920Z,2.70
2023-02-19T02:24:47.142Z,2.63
2023-02-19T02:27:04.642Z,3.08
2023-02-19T02:29:29.528Z,2.40
2023-02-19T02:31:37.965Z,3.10
2023-02-19T02:33:58.668Z,2.60
2023-02-19T02:36:07.594Z,2.45
2023-02-19T02:38:12.891Z,2.40
2023-02-19T02:40:15.074Z,2.47
2023-02-19T02:42:32.105Z,2.28
2023-02-19T02:44:42.238Z,2.35
2023-02-19T02:46:46.437Z,2.60
2023-02-19T02:48:57.377Z,2.63
2023-02-19T02:51:14.400Z,2.33
2023-02-19T02:54:02.881Z,2.35
2023-02-19T02:56:05.222Z,2.40
2023-02-19T02:58:10.209Z,2.35
2023-02-19T03:00:16.527Z,2.50
2023-02-19T03:02:23.416Z,2.40
2023-02-19T03:05:28.189Z,2.78
2023-02-19T03:08:18.590Z,3.42
2023-02-19T03:10:34.541Z,2.90
2023-02-19T03:13:00.478Z,2.72
2023-02-19T03:15:28.809Z,3.75
2023-02-19T03:17:56.786Z,2.90
2023-02-19T03:20:03.265Z,2.83
2023-02-19T03:22:17.159Z,3.35
2023-02-19T03:24:43.177Z,3.65
2023-02-19T03:26:46.510Z,3.67
2023-02-19T03:29:10.109Z,3.22
2023-02-19T03:31:18.020Z,3.40
2023-02-19T03:33:25.311Z,3.38
2023-02-19T03:35:35.144Z,3.70
2023-02-19T03:38:03.429Z,3.30
2023-02-19T03:40:06.783Z,3.00
2023-02-19T03:42:24.353Z,3.33
2023-02-19T03:44:51.678Z,3.53
2023-02-19T03:46:56.087Z,3.50
2023-02-19T03:49:30.067Z,2.90
2023-02-19T03:51:43.162Z,3.47
2023-02-19T03:53:57.541Z,2.60
2023-02-19T03:56:24.756Z,2.78
2023-02-19T03:58:53.121Z,2.88
2023-02-19T04:01:03.353Z,2.85
2023-02-19T04:03:15.759Z,2.85
2023-02-19T04:05:21.713Z,2.80
2023-02-19T04:07:25.196Z,2.70
2023-02-19T04:09:33.300Z,3.28
2023-02-19T04:11:39.976Z,2.97
2023-02-19T04:13:50.214Z,2.85
2023-02-19T04:15:55.876Z,3.47
2023-02-19T04:18:02.338Z,2.47
2023-02-19T04:20:08.809Z,3.20
2023-02-19T04:22:14.553Z,2.88
2023-02-19T04:24:27.382Z,2.22
2023-02-19T04:26:29.316Z,2.60
2023-02-19T04:28:31.233Z,2.40
2023-02-19T04:30:35.840Z,3.10
2023-02-19T04:32:40.314Z,2.40
2023-02-19T04:34:41.826Z,2.53
2023-02-19T04:36:43.508Z,2.28
2023-02-19T04:38:45.095Z,2.30
2023-02-19T04:40:47.176Z,2.08
2023-02-19T04:42:48.748Z,2.60
2023-02-19T04:44:50.232Z,2.03
2023-02-19T04:46:51.825Z,2.00
2023-02-19T04:48:56.328Z,1.77
2023-02-19T04:50:58.073Z,2.55
2023-02-19T04:52:59.647Z,1.77
2023-02-19T04:55:01.610Z,2.42
2023-02-19T04:57:03.360Z,2.13
2023-02-19T04:59:07.652Z,1.70
2023-02-19T05:01:10.352Z,1.60
2023-02-19T05:03:12.201Z,2.03
2023-02-19T05:05:13.846Z,2.00
2023-02-19T05:07:15.496Z,1.40
2023-02-19T05:09:17.027Z,2.10
2023-02-19T05:11:18.883Z,1.73
2023-02-19T05:13:20.448Z,1.33
2023-02-19T05:15:21.918Z,1.20
2023-02-19T05:17:23.484Z,1.77
2023-02-19T05:19:25.625Z,1.60
2023-02-19T05:21:27.469Z,1.55
2023-02-19T05:23:29.080Z,1.65
2023-02-19T05:25:30.630Z,1.58
2023-02-19T05:27:32.302Z,1.45
2023-02-19T05:29:33.897Z,1.58
2023-02-19T05:31:35.790Z,1.52
2023-02-19T05:33:38.026Z,1.75
2023-02-19T05:35:44.883Z,1.40
2023-02-19T05:37:46.545Z,1.48
2023-02-19T05:39:49.181Z,1.58
2023-02-19T05:41:50.665Z,1.73
2023-02-19T05:43:53.206Z,1.48
2023-02-19T05:45:58.541Z,1.70
2023-02-19T05:48:00.448Z,1.50
2023-02-19T05:50:02.234Z,1.65
2023-02-19T05:52:06.717Z,1.17
2023-02-19T05:54:09.617Z,1.30
2023-02-19T05:56:26.447Z,1.75
2023-02-19T05:58:28.149Z,1.27
2023-02-19T06:00:29.870Z,1.40
2023-02-19T06:02:34.253Z,1.48
2023-02-19T06:04:36.027Z,1.73
2023-02-19T06:06:38.112Z,1.65
2023-02-19T06:08:39.667Z,1.50
2023-02-19T06:10:41.451Z,1.73
2023-02-19T06:12:43.321Z,1.30
2023-02-19T06:14:45.188Z,1.30
2023-02-19T06:16:46.884Z,1.50
2023-02-19T06:18:48.656Z,2.10
2023-02-19T06:20:53.135Z,1.80
2023-02-19T06:22:54.835Z,1.25
2023-02-19T06:24:56.376Z,1.55
2023-02-19T06:26:59.858Z,1.25
2023-02-19T06:29:01.862Z,1.20
2023-02-19T06:31:04.587Z,1.40
2023-02-19T06:33:06.243Z,1.10
2023-02-19T06:35:07.935Z,1.10
2023-02-19T06:37:12.117Z,1.25
2023-02-19T06:39:13.871Z,1.48
2023-02-19T06:41:15.630Z,1.25
2023-02-19T06:43:18.210Z,1.20
2023-02-19T06:45:19.714Z,1.48
2023-02-19T06:47:23.175Z,1.10
2023-02-19T06:49:26.972Z,1.35
2023-02-19T06:51:29.766Z,1.30
2023-02-19T06:53:31.554Z,1.17
2023-02-19T06:55:33.036Z,1.35
2023-02-19T06:57:34.691Z,1.10
2023-02-19T06:59:36.315Z,1.25
2023-02-19T07:01:40.102Z,1.60
2023-02-19T07:03:41.752Z,1.10
2023-02-19T07:05:43.835Z,1.63
2023-02-19T07:07:46.151Z,2.20
2023-02-19T07:09:47.682Z,1.20
2023-02-19T07:11:49.447Z,1.30
2023-02-19T07:14:01.730Z,1.27
2023-02-19T07:16:07.993Z,1.52
2023-02-19T07:18:10.618Z,1.10
2023-02-19T07:20:13.197Z,1.20
2023-02-19T07:22:14.861Z,1.20
2023-02-19T07:24:16.491Z,1.30
2023-02-19T07:26:19.275Z,1.23
2023-02-19T07:28:20.979Z,1.10
2023-02-19T07:30:22.518Z,1.20
2023-02-19T07:32:24.168Z,1.10
2023-02-19T07:34:26.006Z,1.02
2023-02-19T07:36:27.738Z,0.80
2023-02-19T07:38:29.435Z,0.80
2023-02-19T07:40:31.036Z,1.20
2023-02-19T07:42:35.174Z,1.10
2023-02-19T07:44:36.933Z,1.20
2023-02-19T07:46:38.949Z,0.98
2023-02-19T07:48:42.617Z,1.00
2023-02-19T07:50:57.363Z,1.10
2023-02-19T07:52:58.996Z,1.08
2023-02-19T07:55:00.680Z,1.23
2023-02-19T07:57:02.403Z,2.72
2023-02-19T07:59:04.230Z,1.52
2023-02-19T08:01:10.623Z,0.90
2023-02-19T08:03:12.636Z,1.15
2023-02-19T08:05:18.128Z,0.77
2023-02-19T08:07:19.692Z,1.38
2023-02-19T08:09:24.282Z,0.82
2023-02-19T08:11:44.560Z,1.00
2023-02-19T08:13:51.592Z,1.00
2023-02-19T08:15:56.286Z,0.98
2023-02-19T08:17:59.384Z,1.17
2023-02-19T08:20:00.921Z,0.85
2023-02-19T08:22:02.883Z,1.10
2023-02-19T08:24:05.003Z,1.33
2023-02-19T08:26:07.312Z,1.08
2023-02-19T08:28:10.937Z,1.00
2023-02-19T08:30:12.940Z,1.10
2023-02-19T08:32:14.750Z,1.10
2023-02-19T08:34:16.700Z,0.88
2023-02-19T08:36:18.390Z,1.00
2023-02-19T08:38:20.076Z,0.98
2023-02-19T08:40:25.162Z,0.90
2023-02-19T08:42:28.818Z,1.35
2023-02-19T08:44:33.549Z,2.63
2023-02-19T08:46:35.284Z,1.23
2023-02-19T08:48:38.050Z,0.98
2023-02-19T08:50:40.202Z,0.88
2023-02-19T08:52:41.848Z,1.27
2023-02-19T08:54:45.845Z,0.95
2023-02-19T08:56:48.803Z,0.80
2023-02-19T08:58:50.275Z,1.45
2023-02-19T09:00:52.764Z,1.90
2023-02-19T09:02:54.321Z,1.45
2023-02-19T09:04:56.292Z,0.70
2023-02-19T09:06:58.196Z,0.95
2023-02-19T09:09:02.977Z,1.25
2023-02-19T09:11:07.285Z,0.80
2023-02-19T09:13:09.060Z,1.15
2023-02-19T09:15:10.875Z,0.73
2023-02-19T09:17:12.880Z,1.15
2023-02-19T09:19:14.499Z,0.90
2023-02-19T09:21:16.390Z,1.38
2023-02-19T09:23:18.081Z,1.05
2023-02-19T09:25:19.785Z,0.90
2023-02-19T09:27:21.423Z,1.10
2023-02-19T09:29:25.884Z,1.13
2023-02-19T09:31:27.726Z,0.82
2023-02-19T09:33:29.480Z,0.82
2023-02-19T09:35:31.166Z,0.90
2023-02-19T09:37:34.166Z,0.88
2023-02-19T09:39:36.313Z,0.93
2023-02-19T09:42:01.259Z,0.90
2023-02-19T09:44:06.038Z,0.77
2023-02-19T09:46:37.929Z,1.00
2023-02-19T09:48:41.584Z,0.98
2023-02-19T09:50:47.992Z,1.13
2023-02-19T09:52:57.053Z,1.17
2023-02-19T09:55:02.986Z,0.82
2023-02-19T09:57:05.916Z,1.13
2023-02-19T09:59:20.179Z,1.33
2023-02-19T10:01:25.517Z,1.33
2023-02-19T10:03:47.750Z,1.08
2023-02-19T10:05:49.472Z,0.75
2023-02-19T10:07:53.427Z,2.40
2023-02-19T10:10:01.260Z,1.13
2023-02-19T10:12:02.961Z,1.63
2023-02-19T10:14:09.516Z,0.93
2023-02-19T10:16:19.625Z,1.27
2023-02-19T10:18:24.904Z,1.20
2023-02-19T10:20:29.203Z,1.27
2023-02-19T10:22:33.291Z,1.02
2023-02-19T10:24:36.415Z,1.58
2023-02-19T10:26:40.042Z,1.25
2023-02-19T10:28:41.694Z,1.15
2023-02-19T10:30:43.576Z,3.00
2023-02-19T10:33:04.587Z,1.23
2023-02-19T10:35:16.635Z,1.40
2023-02-19T10:37:19.036Z,1.98
2023-02-19T10:39:43.983Z,1.45
2023-02-19T10:41:45.623Z,2.30
2023-02-19T10:43:55.724Z,1.35
2023-02-19T10:45:59.910Z,2.22
2023-02-19T10:48:02.386Z,2.42
2023-02-19T10:50:18.315Z,1.35
2023-02-19T10:52:24.337Z,1.10
2023-02-19T10:54:30.597Z,2.38
2023-02-19T10:56:43.190Z,1.25
2023-02-19T10:58:46.935Z,2.42
2023-02-19T11:01:09.350Z,1.95
2023-02-19T11:03:18.345Z,1.65
2023-02-19T11:05:20.477Z,1.90
2023-02-19T11:07:24.914Z,1.73
2023-02-19T11:09:40.615Z,1.23
2023-02-19T11:11:42.598Z,2.05
2023-02-19T11:13:46.980Z,2.28
2023-02-19T11:15:52.981Z,2.65
2023-02-19T11:18:12.996Z,2.55
2023-02-19T11:20:17.632Z,2.25
2023-02-19T11:22:18.976Z,2.33
2023-02-19T11:24:28.805Z,1.63
2023-02-19T11:26:41.013Z,2.20
2023-02-19T11:28:43.484Z,1.20
2023-02-19T11:30:47.649Z,1.40
2023-02-19T11:32:50.750Z,1.33
2023-02-19T11:35:14.398Z,1.58
2023-02-19T11:37:24.933Z,1.88
2023-02-19T11:39:31.276Z,1.85
2023-02-19T11:41:41.842Z,2.60
2023-02-19T11:43:50.163Z,2.88
2023-02-19T11:46:09.746Z,2.70
2023-02-19T11:48:17.200Z,2.72
2023-02-19T11:50:27.956Z,1.77
2023-02-19T11:52:32.754Z,2.90
2023-02-19T11:54:54.630Z,3.97
2023-02-19T11:57:07.219Z,1.83
2023-02-19T11:59:33.528Z,1.50
2023-02-19T12:02:05.039Z,1.63
2023-02-19T12:04:25.004Z,2.33
2023-02-19T12:06:30.721Z,1.45
2023-02-19T12:09:09.160Z,2.55
2023-02-19T12:11:49.631Z,2.17
2023-02-19T12:14:01.660Z,2.55
2023-02-19T12:16:19.008Z,1.73
2023-02-19T12:18:45.446Z,2.72
2023-02-19T12:21:14.659Z,2.72
2023-02-19T12:23:37.256Z,0.80
2023-02-19T12:25:44.826Z,1.23
2023-02-19T12:28:04.272Z,2.33
2023-02-19T12:30:32.236Z,2.42
2023-02-19T12:33:12.515Z,1.40
2023-02-19T12:35:19.970Z,2.35
2023-02-19T12:37:42.646Z,1.67
2023-02-19T12:40:15.006Z,1.25
2023-02-19T12:42:52.446Z,1.92
2023-02-19T12:45:04.835Z,1.98
2023-02-19T12:47:08.701Z,1.85
2023-02-19T12:49:19.865Z,2.28
2023-02-19T12:51:40.182Z,3.00
2023-02-19T12:53:55.295Z,2.40
2023-02-19T12:56:00.292Z,1.90
2023-02-19T12:58:10.378Z,1.98
2023-02-19T13:00:27.424Z,1.23
2023-02-19T13:03:00.289Z,2.20
2023-02-19T13:05:11.108Z,1.50
2023-02-19T13:07:33.317Z,1.80
2023-02-19T13:09:46.928Z,1.98
2023-02-19T13:11:53.083Z,2.35
2023-02-19T13:14:16.834Z,2.70
2023-02-19T13:16:20.779Z,2.72
2023-02-19T13:18:56.128Z,2.75
2023-02-19T13:21:07.602Z,3.60
2023-02-19T13:23:59.164Z,2.50
2023-02-19T13:26:22.602Z,1.70
2023-02-19T13:28:50.316Z,1.75
2023-02-19T13:31:19.435Z,1.58
2023-02-19T13:33:37.684Z,2.10
2023-02-19T13:35:57.502Z,1.67
2023-02-19T13:40:32.242Z,2.10
2023-02-19T13:42:35.866Z,2.67
2023-02-19T13:44:41.345Z,2.13
2023-02-19T13:46:45.161Z,1.85
2023-02-19T13:48:50.027Z,1.65
2023-02-19T13:51:23.793Z,1.40
2023-02-19T13:53:54.077Z,4.38
2023-02-19T13:55:55.921Z,3.97
2023-02-19T13:58:33.668Z,3.88
2023-02-19T14:00:52.054Z,2.70
2023-02-19T14:03:29.986Z,1.95
2023-02-19T14:06:01.029Z,2.22
2023-02-19T14:08:08.613Z,1.50
2023-02-19T14:10:34.845Z,1.35
2023-02-19T14:12:41.273Z,1.08
2023-02-19T14:14:56.468Z,0.80
2023-02-19T14:17:09.397Z,1.10
2023-02-19T14:19:39.196Z,1.73
2023-02-19T14:21:52.731Z,1.27
2023-02-19T14:24:14.825Z,1.30
2023-02-19T14:26:30.524Z,1.20
2023-02-19T14:28:40.329Z,2.60
2023-02-19T14:30:57.062Z,3.63
2023-02-19T14:33:12.279Z,1.10
2023-02-19T14:35:32.669Z,1.50
2023-02-19T14:37:34.589Z,2.28
2023-02-19T14:39:40.339Z,2.33
2023-02-19T14:41:47.331Z,2.80
2023-02-19T14:43:51.828Z,2.35
2023-02-19T14:46:29.359Z,2.67
2023-02-19T14:48:39.599Z,1.67
2023-02-19T14:50:42.544Z,2.85
2023-02-19T14:52:48.759Z,3.25
2023-02-19T14:55:01.581Z,2.30
2023-02-19T14:57:05.065Z,1.70
2023-02-19T14:59:23.321Z,3.85
2023-02-19T15:01:30.371Z,2.65
2023-02-19T15:03:37.793Z,2.35
2023-02-19T15:05:46.439Z,1.52
2023-02-19T15:07:48.767Z,2.85
2023-02-19T15:09:53.426Z,1.50
2023-02-19T15:11:55.516Z,2.85
2023-02-19T15:13:59.538Z,2.80
2023-02-19T15:16:01.418Z,1.52
2023-02-19T15:18:05.156Z,2.10
2023-02-19T15:20:11.329Z,1.70
2023-02-19T15:22:20.873Z,3.33
2023-02-19T15:24:28.300Z,1.83
2023-02-19T15:26:43.029Z,2.60
2023-02-19T15:28:45.011Z,3.10
2023-02-19T15:30:47.291Z,2.10
2023-02-19T15:33:04.074Z,1.65
2023-02-19T15:35:05.987Z,3.60
2023-02-19T15:37:12.651Z,1.77
2023-02-19T15:39:27.154Z,2.83
2023-02-19T15:41:35.529Z,1.85
2023-02-19T15:43:40.221Z,2.88
2023-02-19T15:45:45.338Z,2.20
2023-02-19T15:47:53.184Z,3.08
2023-02-19T15:50:07.241Z,2.08
2023-02-19T15:52:20.188Z,3.20
2023-02-19T15:54:31.725Z,1.70
2023-02-19T15:56:46.496Z,3.22
2023-02-19T15:58:58.207Z,2.78
2023-02-19T16:01:08.414Z,2.92
2023-02-19T16:03:18.182Z,4.43
2023-02-19T16:05:26.053Z,1.88
2023-02-19T16:07:34.797Z,3.08
2023-02-19T16:09:41.363Z,1.92
2023-02-19T16:11:52.315Z,2.17
2023-02-19T16:14:22.750Z,4.60
2023-02-19T16:16:38.539Z,2.92
2023-02-19T16:18:45.438Z,2.25
2023-02-19T16:20:48.181Z,3.50
2023-02-19T16:22:56.590Z,3.15
2023-02-19T16:25:05.861Z,2.95
2023-02-19T16:27:08.394Z,2.05
2023-02-19T16:29:25.986Z,3.38
2023-02-19T16:31:29.795Z,2.58
2023-02-19T16:33:37.385Z,2.47
2023-02-19T16:35:40.132Z,2.92
2023-02-19T16:37:57.699Z,4.15
2023-02-19T16:40:08.133Z,2.63
2023-02-19T16:42:16.067Z,2.42
2023-02-19T16:44:20.376Z,2.38
2023-02-19T16:46:22.330Z,2.13
2023-02-19T16:48:24.389Z,2.67
2023-02-19T16:50:26.872Z,3.53
2023-02-19T16:52:28.912Z,1.40
2023-02-19T16:54:30.475Z,3.17
2023-02-19T16:56:32.319Z,1.75
2023-02-19T16:58:33.958Z,2.17
2023-02-19T17:00:35.847Z,4.03
2023-02-19T17:02:37.509Z,2.88
2023-02-19T17:04:39.257Z,2.33
2023-02-19T17:06:40.926Z,3.25
2023-02-19T17:08:44.305Z,2.30
2023-02-19T17:10:45.961Z,1.63
2023-02-19T17:12:50.640Z,2.58
2023-02-19T17:14:52.516Z,4.70
2023-02-19T17:16:55.346Z,2.08
2023-02-19T17:18:58.984Z,2.60
2023-02-19T17:21:16.228Z,3.38
2023-02-19T17:23:17.815Z,2.42
2023-02-19T17:25:20.021Z,2.05
2023-02-19T17:27:21.603Z,5.35
2023-02-19T17:29:24.465Z,11.45
2023-02-19T17:31:26.398Z,17.33
2023-02-19T17:33:28.024Z,17.73
2023-02-19T17:35:30.020Z,16.10
2023-02-19T17:37:31.733Z,15.13
2023-02-19T17:39:33.292Z,13.73
2023-02-19T17:41:35.163Z,8.10
2023-02-19T17:43:36.745Z,7.90
2023-02-19T17:45:41.191Z,5.97
2023-02-19T17:47:42.891Z,5.20
2023-02-19T17:49:49.785Z,3.72
2023-02-19T17:51:51.449Z,5.25
2023-02-19T17:53:53.042Z,3.85
2023-02-19T17:55:57.590Z,2.78
2023-02-19T17:57:59.849Z,3.72
2023-02-19T18:00:04.507Z,2.78
2023-02-19T18:02:14.301Z,2.55
2023-02-19T18:04:15.980Z,2.95
2023-02-19T18:06:17.941Z,3.03
2023-02-19T18:08:19.425Z,3.25
2023-02-19T18:10:23.478Z,3.85
2023-02-19T18:12:25.874Z,3.42
2023-02-19T18:14:27.420Z,3.15
2023-02-19T18:16:29.225Z,2.67
2023-02-19T18:18:33.369Z,3.30
2023-02-19T18:20:35.152Z,11.70
2023-02-19T18:22:40.599Z,17.38
2023-02-19T18:24:48.774Z,18.40
2023-02-19T18:26:50.430Z,18.95
2023-02-19T18:28:51.928Z,16.17
2023-02-19T18:30:53.650Z,13.45
2023-02-19T18:32:55.313Z,10.77
2023-02-19T18:34:58.225Z,9.15
2023-02-19T18:36:59.879Z,7.05
2023-02-19T18:39:01.740Z,6.20
2023-02-19T18:41:03.414Z,5.60
2023-02-19T18:43:08.717Z,8.15
2023-02-19T18:45:10.515Z,7.50
2023-02-19T18:47:12.389Z,4.68
2023-02-19T18:49:15.032Z,5.60
2023-02-19T18:51:16.616Z,7.88
2023-02-19T18:53:18.280Z,7.95
2023-02-19T18:55:19.964Z,7.82
2023-02-19T18:57:22.668Z,5.32
2023-02-19T18:59:24.624Z,5.45
2023-02-19T19:01:26.303Z,4.15
2023-02-19T19:03:30.558Z,6.43
2023-02-19T19:05:33.930Z,5.43
2023-02-19T19:07:35.559Z,4.20
2023-02-19T19:09:37.992Z,4.88
2023-02-19T19:11:40.608Z,4.45
2023-02-19T19:13:42.340Z,7.05
2023-02-19T19:15:50.365Z,3.17
2023-02-19T19:17:52.430Z,2.75
2023-02-19T19:19:56.372Z,4.65
2023-02-19T19:22:01.096Z,4.35
2023-02-19T19:24:03.304Z,6.30
2023-02-19T19:26:06.088Z,3.75
2023-02-19T19:28:08.042Z,4.45
2023-02-19T19:30:09.885Z,3.95
2023-02-19T19:32:15.990Z,4.45
2023-02-19T19:34:18.450Z,3.63
2023-02-19T19:36:22.592Z,3.70
2023-02-19T19:38:24.196Z,4.63
2023-02-19T19:40:25.722Z,3.42
2023-02-19T19:42:27.428Z,5.18
2023-02-19T19:44:29.256Z,3.20
2023-02-19T19:46:31.255Z,3.30
2023-02-19T19:48:33.215Z,3.72
2023-02-19T19:50:37.402Z,3.15
2023-02-19T19:52:39.253Z,3.90
2023-02-19T19:54:42.779Z,3.35
2023-02-19T19:56:47.197Z,3.35
2023-02-19T19:58:48.839Z,6.30
2023-02-19T20:00:51.770Z,6.38
2023-02-19T20:02:53.499Z,5.63
2023-02-19T20:04:55.055Z,5.90
2023-02-19T20:06:58.747Z,5.30
2023-02-19T20:09:03.301Z,4.72
2023-02-19T20:11:05.080Z,6.40
2023-02-19T20:13:07.182Z,4.88
2023-02-19T20:15:09.732Z,5.47
2023-02-19T20:17:11.542Z,5.07
2023-02-19T20:19:14.343Z,3.70
2023-02-19T20:21:16.073Z,4.20
2023-02-19T20:23:17.842Z,2.60
2023-02-19T20:25:24.375Z,1.65
2023-02-19T20:27:25.966Z,2.60
2023-02-19T20:29:30.660Z,3.90
2023-02-19T20:31:32.305Z,3.17
2023-02-19T20:33:33.980Z,1.83
2023-02-19T20:35:35.590Z,3.80
2023-02-19T20:37:40.425Z,3.30
2023-02-19T20:39:44.765Z,2.08
2023-02-19T20:41:47.918Z,2.28
2023-02-19T20:43:53.266Z,2.08
2023-02-19T20:45:57.933Z,1.35
2023-02-19T20:47:59.738Z,2.05
2023-02-19T20:50:01.331Z,2.45
2023-02-19T20:52:06.939Z,2.38
2023-02-19T20:54:11.463Z,2.05
2023-02-19T20:56:13.685Z,2.63
2023-02-19T20:58:15.474Z,2.28
2023-02-19T21:00:18.191Z,2.25
2023-02-19T21:02:23.859Z,2.15
2023-02-19T21:04:26.169Z,2.35
2023-02-19T21:06:27.713Z,2.38
2023-02-19T21:08:29.192Z,3.50
2023-02-19T21:10:31.332Z,3.17
2023-02-19T21:12:33.607Z,1.88
2023-02-19T21:14:37.475Z,3.00
2023-02-19T21:16:39.233Z,4.10
2023-02-19T21:18:43.788Z,2.85
2023-02-19T21:20:45.389Z,1.90
2023-02-19T21:22:47.086Z,1.90
2023-02-19T21:24:55.180Z,2.75
2023-02-19T21:26:57.272Z,2.10
2023-02-19T21:29:02.815Z,1.92
2023-02-19T21:31:05.023Z,3.38
2023-02-19T21:33:06.893Z,1.50
2023-02-19T21:35:11.260Z,2.50
2023-02-19T21:37:13.403Z,2.40
2023-02-19T21:39:20.822Z,1.75
2023-02-19T21:41:22.443Z,2.83
2023-02-19T21:43:24.106Z,2.58
2023-02-19T21:45:25.832Z,2.30
2023-02-19T21:47:30.234Z,2.17
2023-02-19T21:49:34.650Z,2.28
2023-02-19T21:51:39.275Z,1.55
2023-02-19T21:53:40.967Z,1.95
2023-02-19T21:55:57.532Z,4.43
2023-02-19T21:58:00.125Z,9.02
2023-02-19T22:00:03.768Z,9.57
2023-02-19T22:02:06.547Z,8.13
2023-02-19T22:04:14.298Z,7.43
2023-02-19T22:06:16.640Z,4.82
2023-02-19T22:08:21.356Z,3.50
2023-02-19T22:10:22.952Z,3.90
2023-02-19T22:12:24.484Z,3.28
2023-02-19T22:14:25.957Z,3.10
2023-02-19T22:16:28.797Z,3.22
2023-02-19T22:18:30.335Z,2.78
2023-02-19T22:20:32.087Z,2.25
2023-02-19T22:22:33.807Z,1.92
2023-02-19T22:24:35.767Z,2.72
2023-02-19T22:26:37.397Z,2.00
2023-02-19T22:28:38.902Z,3.13
2023-02-19T22:30:41.465Z,2.15
2023-02-19T22:32:43.262Z,2.65
2023-02-19T22:34:44.812Z,3.60
2023-02-19T22:36:46.657Z,1.90
2023-02-19T22:38:49.415Z,2.13
2023-02-19T22:40:51.129Z,2.85
2023-02-19T22:42:55.581Z,2.35
2023-02-19T22:44:57.230Z,1.80
2023-02-19T22:47:00.682Z,3.15
2023-02-19T22:49:05.615Z,1.98
2023-02-19T22:51:13.157Z,2.33
2023-02-19T22:53:16.589Z,2.35
2023-02-19T22:55:18.379Z,2.63
2023-02-19T22:57:22.706Z,2.22
2023-02-19T22:59:24.613Z,1.73
2023-02-19T23:01:26.619Z,3.47
2023-02-19T23:03:28.174Z,2.30
2023-02-19T23:05:33.043Z,4.13
2023-02-19T23:07:34.534Z,2.08
2023-02-19T23:09:36.199Z,2.00
2023-02-19T23:11:41.434Z,1.90
2023-02-19T23:13:46.362Z,2.75
2023-02-19T23:15:50.298Z,2.10
2023-02-19T23:17:54.704Z,1.98
2023-02-19T23:19:57.175Z,1.58
2023-02-19T23:22:03.684Z,1.80
2023-02-19T23:24:05.630Z,2.55
2023-02-19T23:26:07.324Z,2.22
2023-02-19T23:28:10.311Z,2.40
2023-02-19T23:30:13.016Z,3.20
2023-02-19T23:32:14.640Z,3.38
2023-02-19T23:34:17.335Z,2.33
2023-02-19T23:36:19.476Z,3.15
2023-02-19T23:38:21.141Z,3.25
2023-02-19T23:40:22.677Z,3.13
2023-02-19T23:42:24.340Z,4.60
2023-02-19T23:44:26.612Z,5.53
2023-02-19T23:46:29.910Z,7.65
2023-02-19T23:48:31.933Z,8.20
2023-02-19T23:50:34.618Z,5.20
2023-02-19T23:52:36.387Z,6.55
2023-02-19T23:54:40.807Z,3.20
2023-02-19T23:56:42.504Z,4.68
2023-02-19T23:58:44.182Z,5.10
